createdAt,value
2018-09-28T00:01:54.661Z,8.10
2018-09-28T00:04:23.355Z,8.10
2018-09-28T00:06:51.981Z,8.20
2018-09-28T00:09:20.599Z,8.20
2018-09-28T00:11:49.266Z,8.20
2018-09-28T00:14:17.891Z,8.20
2018-09-28T00:16:46.612Z,8.20
2018-09-28T00:19:15.287Z,8.20
2018-09-28T00:21:43.896Z,8.20
2018-09-28T00:24:12.547Z,8.20
2018-09-28T00:26:41.255Z,8.20
2018-09-28T00:29:09.963Z,8.20
2018-09-28T00:31:38.574Z,8.20
2018-09-28T00:34:07.291Z,8.30
2018-09-28T00:36:35.967Z,8.40
2018-09-28T00:39:05.993Z,8.40
2018-09-28T00:41:34.671Z,8.40
2018-09-28T00:44:03.374Z,8.40
2018-09-28T00:46:32.028Z,8.50
2018-09-28T00:49:00.728Z,8.50
2018-09-28T00:51:29.404Z,8.50
2018-09-28T00:53:58.060Z,8.60
2018-09-28T00:56:26.785Z,8.70
2018-09-28T00:58:55.434Z,8.80
2018-09-28T01:01:24.103Z,8.90
2018-09-28T01:03:52.767Z,9.00
2018-09-28T01:06:21.378Z,9.20
2018-09-28T01:08:50.000Z,9.30
2018-09-28T01:11:18.631Z,9.30
2018-09-28T01:13:47.239Z,9.40
2018-09-28T01:16:15.910Z,9.40
2018-09-28T01:18:44.536Z,9.40
2018-09-28T01:21:13.171Z,9.50
2018-09-28T01:23:41.800Z,9.60
2018-09-28T01:26:10.591Z,9.70
2018-09-28T01:28:39.237Z,9.80
2018-09-28T01:31:08.016Z,9.90
2018-09-28T01:33:36.675Z,9.90
2018-09-28T01:36:05.364Z,9.90
2018-09-28T01:38:34.055Z,9.90
2018-09-28T01:41:02.742Z,9.90
2018-09-28T01:43:31.815Z,9.90
2018-09-28T01:46:00.445Z,10.00
2018-09-28T01:48:29.107Z,10.10
2018-09-28T01:50:57.754Z,10.20
2018-09-28T01:53:26.403Z,10.30
2018-09-28T01:55:55.088Z,10.40
2018-09-28T01:58:23.738Z,10.50
2018-09-28T02:00:52.414Z,10.50
2018-09-28T02:03:21.419Z,10.60
2018-09-28T02:05:50.067Z,10.70
2018-09-28T02:08:18.731Z,10.70
2018-09-28T02:10:47.362Z,10.80
2018-09-28T02:13:16.008Z,10.90
2018-09-28T02:15:44.652Z,10.90
2018-09-28T02:18:13.331Z,11.00
2018-09-28T02:20:41.963Z,11.00
2018-09-28T02:23:10.636Z,11.10
2018-09-28T02:25:39.308Z,11.10
2018-09-28T02:28:07.959Z,11.10
2018-09-28T02:30:36.616Z,11.10
2018-09-28T02:33:05.271Z,11.10
2018-09-28T02:35:33.911Z,11.10
2018-09-28T02:38:02.580Z,11.20
2018-09-28T02:40:31.352Z,11.20
2018-09-28T02:43:00.016Z,11.20
2018-09-28T02:45:28.659Z,11.20
2018-09-28T02:47:57.343Z,11.20
2018-09-28T02:50:26.031Z,11.20
2018-09-28T02:52:54.778Z,11.20
2018-09-28T02:55:23.442Z,11.20
2018-09-28T02:57:52.083Z,11.20
2018-09-28T03:00:20.728Z,11.20
2018-09-28T03:02:49.462Z,11.30
2018-09-28T03:05:18.160Z,11.30
2018-09-28T03:07:46.811Z,11.30
2018-09-28T03:10:15.478Z,11.30
2018-09-28T03:12:44.127Z,11.20
2018-09-28T03:15:12.835Z,11.20
2018-09-28T03:17:41.490Z,11.30
2018-09-28T03:20:10.165Z,11.30
2018-09-28T03:22:38.843Z,11.40
2018-09-28T03:25:07.520Z,11.30
2018-09-28T03:27:36.195Z,11.40
2018-09-28T03:30:05.519Z,11.40
2018-09-28T03:32:34.187Z,11.40
2018-09-28T03:35:02.840Z,11.40
2018-09-28T03:37:31.539Z,11.40
2018-09-28T03:40:00.171Z,11.40
2018-09-28T03:42:28.824Z,11.40
2018-09-28T03:44:57.520Z,11.40
2018-09-28T03:47:26.210Z,11.30
2018-09-28T03:49:54.865Z,11.30
2018-09-28T03:52:23.512Z,11.30
2018-09-28T03:54:52.114Z,11.30
2018-09-28T03:57:21.023Z,11.30
2018-09-28T03:59:49.704Z,11.40
2018-09-28T04:02:18.343Z,11.40
2018-09-28T04:04:47.291Z,11.40
2018-09-28T04:07:15.934Z,11.40
2018-09-28T04:09:44.583Z,11.40
2018-09-28T04:12:13.219Z,11.40
2018-09-28T04:14:41.913Z,11.30
2018-09-28T04:17:10.536Z,11.30
2018-09-28T04:19:39.226Z,11.30
2018-09-28T04:22:08.091Z,11.30
2018-09-28T04:24:36.764Z,11.30
2018-09-28T04:27:05.419Z,11.40
2018-09-28T04:29:34.015Z,11.40
2018-09-28T04:32:02.940Z,11.40
2018-09-28T04:34:31.551Z,11.50
2018-09-28T04:37:00.151Z,11.50
2018-09-28T04:39:28.815Z,11.50
2018-09-28T04:41:57.481Z,11.60
2018-09-28T04:44:26.132Z,11.60
2018-09-28T04:46:54.755Z,11.70
2018-09-28T04:49:23.408Z,11.70
2018-09-28T04:51:52.011Z,11.70
2018-09-28T04:54:20.687Z,11.70
2018-09-28T04:56:49.307Z,11.70
2018-09-28T04:59:17.903Z,11.70
2018-09-28T05:01:46.573Z,11.80
2018-09-28T05:04:15.188Z,11.80
2018-09-28T05:06:43.827Z,11.80
2018-09-28T05:09:13.852Z,11.80
2018-09-28T05:11:42.735Z,11.90
2018-09-28T05:14:11.612Z,11.90
2018-09-28T05:16:40.746Z,12.00
2018-09-28T05:19:09.988Z,12.10
2018-09-28T05:21:38.647Z,12.10
2018-09-28T05:24:07.519Z,12.10
2018-09-28T05:26:36.142Z,12.10
2018-09-28T05:29:04.855Z,12.10
2018-09-28T05:31:33.525Z,12.10
2018-09-28T05:34:02.106Z,12.10
2018-09-28T05:36:31.068Z,12.10
2018-09-28T05:38:59.667Z,12.10
2018-09-28T05:41:28.283Z,12.10
2018-09-28T05:43:56.932Z,12.20
2018-09-28T05:46:25.644Z,12.20
2018-09-28T05:48:54.274Z,12.20
2018-09-28T05:51:22.967Z,12.30
2018-09-28T05:53:51.591Z,12.20
2018-09-28T05:56:20.551Z,12.20
2018-09-28T05:58:54.443Z,12.20
2018-09-28T06:01:28.274Z,12.30
2018-09-28T06:04:02.243Z,12.30
2018-09-28T06:06:30.881Z,12.40
2018-09-28T06:08:59.587Z,12.40
2018-09-28T06:11:28.191Z,12.40
2018-09-28T06:13:56.807Z,12.30
2018-09-28T06:16:25.431Z,12.40
2018-09-28T06:18:54.149Z,12.40
2018-09-28T06:21:22.728Z,12.40
2018-09-28T06:23:51.360Z,12.40
2018-09-28T06:26:20.070Z,12.50
2018-09-28T06:28:48.716Z,12.50
2018-09-28T06:31:17.405Z,12.60
2018-09-28T06:33:46.026Z,12.50
2018-09-28T06:36:14.767Z,12.40
2018-09-28T06:38:43.360Z,12.40
2018-09-28T06:41:12.055Z,12.30
2018-09-28T06:43:40.723Z,12.30
2018-09-28T06:46:09.386Z,12.20
2018-09-28T06:48:38.045Z,12.30
2018-09-28T06:51:06.677Z,12.30
2018-09-28T06:53:35.311Z,12.30
2018-09-28T06:56:04.007Z,12.30
2018-09-28T06:58:32.709Z,12.30
2018-09-28T07:01:01.347Z,12.30
2018-09-28T07:03:29.986Z,12.30
2018-09-28T07:05:58.752Z,12.40
2018-09-28T07:08:27.354Z,12.50
2018-09-28T07:10:56.314Z,12.60
2018-09-28T07:13:24.954Z,12.60
2018-09-28T07:15:53.679Z,12.70
2018-09-28T07:18:22.351Z,12.80
2018-09-28T07:20:51.051Z,12.90
2018-09-28T07:23:19.715Z,13.00
2018-09-28T07:25:48.372Z,13.00
2018-09-28T07:28:16.947Z,13.10
2018-09-28T07:30:45.555Z,13.20
2018-09-28T07:33:14.219Z,13.30
2018-09-28T07:35:42.895Z,13.50
2018-09-28T07:38:11.536Z,13.50
2018-09-28T07:40:40.239Z,13.50
2018-09-28T07:43:08.902Z,13.50
2018-09-28T07:45:37.806Z,13.50
2018-09-28T07:48:06.511Z,13.60
2018-09-28T07:50:35.156Z,13.60
2018-09-28T07:53:03.822Z,13.60
2018-09-28T07:55:32.447Z,13.70
2018-09-28T07:58:01.093Z,13.80
2018-09-28T08:00:29.731Z,13.80
2018-09-28T08:02:58.619Z,13.90
2018-09-28T08:05:27.298Z,13.90
2018-09-28T08:07:55.949Z,14.00
2018-09-28T08:10:24.606Z,14.00
2018-09-28T08:12:53.306Z,14.00
2018-09-28T08:15:21.962Z,14.00
2018-09-28T08:17:50.647Z,14.10
2018-09-28T08:20:19.309Z,14.00
2018-09-28T08:22:48.032Z,13.90
2018-09-28T08:25:16.684Z,13.90
2018-09-28T08:27:45.326Z,14.00
2018-09-28T08:30:13.993Z,13.90
2018-09-28T08:32:42.690Z,14.00
2018-09-28T08:35:11.326Z,14.10
2018-09-28T08:37:40.151Z,14.10
2018-09-28T08:40:08.880Z,14.20
2018-09-28T08:42:37.499Z,14.20
2018-09-28T08:45:06.192Z,14.00
2018-09-28T08:47:34.824Z,13.90
2018-09-28T08:50:03.496Z,14.00
2018-09-28T08:52:32.175Z,14.10
2018-09-28T08:55:00.791Z,14.10
2018-09-28T08:57:29.463Z,14.20
2018-09-28T08:59:58.067Z,14.10
2018-09-28T09:02:26.731Z,14.20
2018-09-28T09:04:55.408Z,14.30
2018-09-28T09:07:24.077Z,14.40
2018-09-28T09:09:52.726Z,14.50
2018-09-28T09:12:21.387Z,14.50
2018-09-28T09:14:50.019Z,14.70
2018-09-28T09:17:18.602Z,14.80
2018-09-28T09:19:47.332Z,14.70
2018-09-28T09:22:15.964Z,14.60
2018-09-28T09:24:44.604Z,14.60
2018-09-28T09:27:13.255Z,14.60
2018-09-28T09:29:42.207Z,14.50
2018-09-28T09:32:10.820Z,14.50
2018-09-28T09:34:39.433Z,14.40
2018-09-28T09:37:08.063Z,14.40
2018-09-28T09:39:36.732Z,14.50
2018-09-28T09:42:05.439Z,14.50
2018-09-28T09:44:34.039Z,14.50
2018-09-28T09:47:02.691Z,14.70
2018-09-28T09:49:31.362Z,15.00
2018-09-28T09:51:59.995Z,15.20
2018-09-28T09:54:28.666Z,15.30
2018-09-28T09:56:57.343Z,15.30
2018-09-28T09:59:25.982Z,15.30
2018-09-28T10:01:59.937Z,15.30
2018-09-28T10:04:29.327Z,15.30
2018-09-28T10:06:57.966Z,15.20
2018-09-28T10:09:26.584Z,15.20
2018-09-28T10:11:55.243Z,15.40
2018-09-28T10:14:23.896Z,15.50
2018-09-28T10:16:52.566Z,15.60
2018-09-28T10:19:21.207Z,15.70
2018-09-28T10:21:49.872Z,15.70
2018-09-28T10:24:18.852Z,15.70
2018-09-28T10:26:48.348Z,15.60
2018-09-28T10:29:17.004Z,15.60
2018-09-28T10:31:45.652Z,15.60
2018-09-28T10:34:14.315Z,15.70
2018-09-28T10:36:42.942Z,15.70
2018-09-28T10:39:11.600Z,15.80
2018-09-28T10:41:40.229Z,15.80
2018-09-28T10:44:09.960Z,15.60
2018-09-28T10:46:38.687Z,15.40
2018-09-28T10:49:07.288Z,15.20
2018-09-28T10:51:36.037Z,15.10
2018-09-28T10:54:04.652Z,15.10
2018-09-28T10:56:33.282Z,15.20
2018-09-28T10:59:01.963Z,15.30
2018-09-28T11:01:30.670Z,15.40
2018-09-28T11:03:59.303Z,15.40
2018-09-28T11:06:28.000Z,15.60
2018-09-28T11:08:56.713Z,15.70
2018-09-28T11:11:25.289Z,15.70
2018-09-28T11:13:53.911Z,15.70
2018-09-28T11:16:22.561Z,15.80
2018-09-28T11:18:51.262Z,15.80
2018-09-28T11:21:19.991Z,15.80
2018-09-28T11:23:48.634Z,15.70
2018-09-28T11:26:17.304Z,15.60
2018-09-28T11:28:45.981Z,15.70
2018-09-28T11:31:14.649Z,15.80
2018-09-28T11:33:43.351Z,15.90
2018-09-28T11:36:12.047Z,16.10
2018-09-28T11:38:40.706Z,16.30
2018-09-28T11:41:09.355Z,16.50
2018-09-28T11:43:37.943Z,16.60
2018-09-28T11:46:06.855Z,16.50
2018-09-28T11:48:35.796Z,16.20
2018-09-28T11:51:04.458Z,15.90
2018-09-28T11:53:33.075Z,15.60
2018-09-28T11:56:01.780Z,15.30
2018-09-28T11:58:30.367Z,15.20
2018-09-28T12:00:58.990Z,15.30
2018-09-28T12:03:27.649Z,15.50
2018-09-28T12:05:56.271Z,15.70
2018-09-28T12:08:24.971Z,15.80
2018-09-28T12:10:53.651Z,16.00
2018-09-28T12:13:22.362Z,16.20
2018-09-28T12:15:51.027Z,16.50
2018-09-28T12:18:19.686Z,16.60
2018-09-28T12:20:48.352Z,16.80
2018-09-28T12:23:17.009Z,16.70
2018-09-28T12:25:45.684Z,16.40
2018-09-28T12:28:14.349Z,16.10
2018-09-28T12:30:43.007Z,15.90
2018-09-28T12:33:11.641Z,15.50
2018-09-28T12:35:40.434Z,15.30
2018-09-28T12:38:08.923Z,15.10
2018-09-28T12:40:37.561Z,14.90
2018-09-28T12:43:06.251Z,14.80
2018-09-28T12:45:34.922Z,14.80
2018-09-28T12:48:03.531Z,14.90
2018-09-28T12:50:32.300Z,15.10
2018-09-28T12:53:00.935Z,15.30
2018-09-28T12:55:29.505Z,15.70
2018-09-28T12:57:58.150Z,15.90
2018-09-28T13:00:26.894Z,16.10
2018-09-28T13:02:55.480Z,16.40
2018-09-28T13:05:24.144Z,16.70
2018-09-28T13:07:52.792Z,16.70
2018-09-28T13:10:21.479Z,16.80
2018-09-28T13:12:50.199Z,16.70
2018-09-28T13:15:18.804Z,16.60
2018-09-28T13:17:47.475Z,16.20
2018-09-28T13:20:16.220Z,16.10
2018-09-28T13:22:44.895Z,16.00
2018-09-28T13:25:13.536Z,15.90
2018-09-28T13:27:42.160Z,15.70
2018-09-28T13:30:11.194Z,15.70
2018-09-28T13:32:39.869Z,15.70
2018-09-28T13:35:08.488Z,15.90
2018-09-28T13:37:37.167Z,16.00
2018-09-28T13:40:05.883Z,16.20
2018-09-28T13:42:34.669Z,16.40
2018-09-28T13:45:03.377Z,16.50
2018-09-28T13:47:31.988Z,16.60
2018-09-28T13:50:00.816Z,16.70
2018-09-28T13:52:29.440Z,16.50
2018-09-28T13:54:58.006Z,16.40
2018-09-28T13:57:26.923Z,16.40
2018-09-28T13:59:55.664Z,16.40
2018-09-28T14:02:24.319Z,16.20
2018-09-28T14:04:52.963Z,16.20
2018-09-28T14:07:21.576Z,16.10
2018-09-28T14:09:50.255Z,15.80
2018-09-28T14:12:18.923Z,15.70
2018-09-28T14:14:47.616Z,15.50
2018-09-28T14:17:16.299Z,15.20
2018-09-28T14:19:44.971Z,15.10
2018-09-28T14:22:13.964Z,15.20
2018-09-28T14:24:42.565Z,15.30
2018-09-28T14:27:11.395Z,15.50
2018-09-28T14:29:40.000Z,15.60
2018-09-28T14:32:08.731Z,15.80
2018-09-28T14:34:37.445Z,15.90
2018-09-28T14:37:06.183Z,15.90
2018-09-28T14:39:34.836Z,16.00
2018-09-28T14:42:03.452Z,16.00
2018-09-28T14:44:32.109Z,16.00
2018-09-28T14:47:00.690Z,16.00
2018-09-28T14:49:29.311Z,15.90
2018-09-28T14:51:57.903Z,15.60
2018-09-28T14:54:26.632Z,15.60
2018-09-28T14:56:55.256Z,15.60
2018-09-28T14:59:24.163Z,15.50
2018-09-28T15:01:52.871Z,15.40
2018-09-28T15:04:21.615Z,15.40
2018-09-28T15:06:50.432Z,15.30
2018-09-28T15:09:18.967Z,15.10
2018-09-28T15:11:47.648Z,15.10
2018-09-28T15:14:16.353Z,15.10
2018-09-28T15:16:44.998Z,15.00
2018-09-28T15:19:13.955Z,15.00
2018-09-28T15:21:42.622Z,15.00
2018-09-28T15:24:11.235Z,15.10
2018-09-28T15:26:39.895Z,15.00
2018-09-28T15:29:08.535Z,14.80
2018-09-28T15:31:37.172Z,14.70
2018-09-28T15:34:05.811Z,14.60
2018-09-28T15:36:34.440Z,14.60
2018-09-28T15:39:03.196Z,14.50
2018-09-28T15:41:32.129Z,14.40
2018-09-28T15:44:00.763Z,14.40
2018-09-28T15:46:29.429Z,14.40
2018-09-28T15:48:58.060Z,14.30
2018-09-28T15:51:26.694Z,14.30
2018-09-28T15:53:55.335Z,14.20
2018-09-28T15:56:23.979Z,14.20
2018-09-28T15:58:52.654Z,14.20
2018-09-28T16:01:21.293Z,14.10
2018-09-28T16:03:50.014Z,14.10
2018-09-28T16:06:18.647Z,14.10
2018-09-28T16:08:47.296Z,14.10
2018-09-28T16:11:16.008Z,14.00
2018-09-28T16:13:44.901Z,13.90
2018-09-28T16:16:13.539Z,13.80
2018-09-28T16:18:42.562Z,13.80
2018-09-28T16:21:11.206Z,13.80
2018-09-28T16:23:39.860Z,13.70
2018-09-28T16:26:08.505Z,13.50
2018-09-28T16:28:37.172Z,13.40
2018-09-28T16:31:06.001Z,13.40
2018-09-28T16:33:34.978Z,13.30
2018-09-28T16:36:03.726Z,13.20
2018-09-28T16:38:32.425Z,13.10
2018-09-28T16:41:01.116Z,13.10
2018-09-28T16:43:29.751Z,13.00
2018-09-28T16:45:58.408Z,12.90
2018-09-28T16:48:27.042Z,12.90
2018-09-28T16:50:55.686Z,12.80
2018-09-28T16:53:24.350Z,12.70
2018-09-28T16:55:52.954Z,12.60
2018-09-28T16:58:21.616Z,12.50
2018-09-28T17:00:50.288Z,12.40
2018-09-28T17:03:18.967Z,12.40
2018-09-28T17:05:47.556Z,12.30
2018-09-28T17:08:16.202Z,12.20
2018-09-28T17:10:44.849Z,12.00
2018-09-28T17:13:13.465Z,11.90
2018-09-28T17:15:42.486Z,11.70
2018-09-28T17:18:11.110Z,11.60
2018-09-28T17:20:39.728Z,11.60
2018-09-28T17:23:08.439Z,11.40
2018-09-28T17:25:37.086Z,11.40
2018-09-28T17:28:05.723Z,11.30
2018-09-28T17:30:34.433Z,11.20
2018-09-28T17:33:03.020Z,11.10
2018-09-28T17:35:31.644Z,11.00
2018-09-28T17:38:00.344Z,10.90
2018-09-28T17:40:29.020Z,10.90
2018-09-28T17:42:57.669Z,10.80
2018-09-28T17:45:26.283Z,10.70
2018-09-28T17:47:54.976Z,10.70
2018-09-28T17:50:23.620Z,10.60
2018-09-28T17:52:52.260Z,10.50
2018-09-28T17:55:21.147Z,10.40
2018-09-28T17:57:49.776Z,10.30
2018-09-28T18:00:18.512Z,10.30
2018-09-28T18:02:47.207Z,10.20
2018-09-28T18:05:15.847Z,10.10
2018-09-28T18:07:44.514Z,10.00
2018-09-28T18:10:13.159Z,9.90
2018-09-28T18:12:41.832Z,9.90
2018-09-28T18:15:10.524Z,9.70
2018-09-28T18:17:39.518Z,9.70
2018-09-28T18:20:08.172Z,9.60
2018-09-28T18:22:36.887Z,9.50
2018-09-28T18:25:05.604Z,9.50
2018-09-28T18:27:34.252Z,9.40
2018-09-28T18:30:02.904Z,9.40
2018-09-28T18:32:31.495Z,9.30
2018-09-28T18:35:00.183Z,9.30
2018-09-28T18:37:28.793Z,9.40
2018-09-28T18:39:57.432Z,9.30
2018-09-28T18:42:26.163Z,9.30
2018-09-28T18:44:54.780Z,9.10
2018-09-28T18:47:23.428Z,9.00
2018-09-28T18:49:52.167Z,9.00
2018-09-28T18:52:20.820Z,9.00
2018-09-28T18:54:49.512Z,8.90
2018-09-28T18:57:18.171Z,8.90
2018-09-28T18:59:47.380Z,8.80
2018-09-28T19:02:16.052Z,8.60
2018-09-28T19:04:44.718Z,8.60
2018-09-28T19:07:13.383Z,8.50
2018-09-28T19:09:42.051Z,8.50
2018-09-28T19:12:10.698Z,8.30
2018-09-28T19:14:39.335Z,8.30
2018-09-28T19:17:08.015Z,8.30
2018-09-28T19:19:36.687Z,8.20
2018-09-28T19:22:05.329Z,8.20
2018-09-28T19:24:34.114Z,8.10
2018-09-28T19:27:02.727Z,8.00
2018-09-28T19:29:31.372Z,8.00
2018-09-28T19:32:00.053Z,7.90
2018-09-28T19:34:28.716Z,7.80
2018-09-28T19:36:57.395Z,7.70
2018-09-28T19:39:26.076Z,7.70
2018-09-28T19:41:54.797Z,7.60
2018-09-28T19:44:23.452Z,7.50
2018-09-28T19:46:52.086Z,7.40
2018-09-28T19:49:20.764Z,7.30
2018-09-28T19:51:49.383Z,7.30
2018-09-28T19:54:17.980Z,7.20
2018-09-28T19:56:46.647Z,7.10
2018-09-28T19:59:15.386Z,7.10
2018-09-28T20:01:43.971Z,7.00
2018-09-28T20:04:12.563Z,7.00
2018-09-28T20:06:41.189Z,6.90
2018-09-28T20:09:11.099Z,6.90
2018-09-28T20:11:39.932Z,6.80
2018-09-28T20:14:08.825Z,6.80
2018-09-28T20:16:37.411Z,6.80
2018-09-28T20:19:06.261Z,6.70
2018-09-28T20:21:34.916Z,6.70
2018-09-28T20:24:03.667Z,6.60
2018-09-28T20:26:32.266Z,6.60
2018-09-28T20:29:00.887Z,6.60
2018-09-28T20:31:29.522Z,6.60
2018-09-28T20:33:58.195Z,6.50
2018-09-28T20:36:26.831Z,6.50
2018-09-28T20:38:55.456Z,6.40
2018-09-28T20:41:24.176Z,6.40
2018-09-28T20:43:52.891Z,6.40
2018-09-28T20:46:21.571Z,6.30
2018-09-28T20:48:50.258Z,6.30
2018-09-28T20:51:18.852Z,6.30
2018-09-28T20:53:47.848Z,6.20
2018-09-28T20:56:16.491Z,6.20
2018-09-28T20:58:45.130Z,6.10
2018-09-28T21:01:13.749Z,6.10
2018-09-28T21:03:42.663Z,6.10
2018-09-28T21:06:11.296Z,6.00
2018-09-28T21:08:39.895Z,6.00
2018-09-28T21:11:08.614Z,6.00
2018-09-28T21:13:37.267Z,6.00
2018-09-28T21:16:05.972Z,6.00
2018-09-28T21:18:34.614Z,6.00
2018-09-28T21:21:03.222Z,6.00
2018-09-28T21:23:31.997Z,5.90
2018-09-28T21:26:00.663Z,5.90
2018-09-28T21:28:29.308Z,5.90
2018-09-28T21:30:58.004Z,5.80
2018-09-28T21:33:27.006Z,5.80
2018-09-28T21:35:55.726Z,5.70
2018-09-28T21:38:24.486Z,5.70
2018-09-28T21:40:53.144Z,5.70
2018-09-28T21:43:21.772Z,5.70
2018-09-28T21:45:50.396Z,5.70
2018-09-28T21:48:19.008Z,5.70
2018-09-28T21:50:47.797Z,5.70
2018-09-28T21:53:16.436Z,5.60
2018-09-28T21:55:45.080Z,5.60
2018-09-28T21:58:13.752Z,5.60
2018-09-28T22:00:42.400Z,5.50
2018-09-28T22:03:11.128Z,5.50
2018-09-28T22:05:39.776Z,5.50
2018-09-28T22:08:08.493Z,5.50
2018-09-28T22:10:37.131Z,5.40
2018-09-28T22:13:05.783Z,5.40
2018-09-28T22:15:34.419Z,5.40
2018-09-28T22:18:03.085Z,5.30
2018-09-28T22:20:32.038Z,5.30
2018-09-28T22:23:00.715Z,5.40
2018-09-28T22:25:29.384Z,5.30
2018-09-28T22:27:58.055Z,5.30
2018-09-28T22:30:26.721Z,5.20
2018-09-28T22:32:55.343Z,5.20
2018-09-28T22:35:23.978Z,5.10
2018-09-28T22:37:52.654Z,5.10
2018-09-28T22:40:21.395Z,5.00
2018-09-28T22:42:50.073Z,5.00
2018-09-28T22:45:18.724Z,5.00
2018-09-28T22:47:47.428Z,4.90
2018-09-28T22:50:16.071Z,4.90
2018-09-28T22:52:44.955Z,4.90
2018-09-28T22:55:13.602Z,4.90
2018-09-28T22:57:42.258Z,4.90
2018-09-28T23:00:10.910Z,4.90
2018-09-28T23:02:39.561Z,4.90
2018-09-28T23:05:08.231Z,4.90
2018-09-28T23:07:37.272Z,4.80
2018-09-28T23:10:06.058Z,4.70
2018-09-28T23:12:34.705Z,4.70
2018-09-28T23:15:03.629Z,4.70
2018-09-28T23:17:32.228Z,4.70
2018-09-28T23:20:00.935Z,4.60
2018-09-28T23:22:29.618Z,4.60
2018-09-28T23:24:58.301Z,4.60
2018-09-28T23:27:26.970Z,4.50
2018-09-28T23:29:55.621Z,4.50
2018-09-28T23:32:24.308Z,4.50
2018-09-28T23:34:53.428Z,4.50
2018-09-28T23:37:22.079Z,4.50
2018-09-28T23:39:50.732Z,4.60
2018-09-28T23:42:19.675Z,4.50
2018-09-28T23:44:48.339Z,4.50
2018-09-28T23:47:16.988Z,4.40
2018-09-28T23:49:45.703Z,4.40
2018-09-28T23:52:14.335Z,4.40
2018-09-28T23:54:42.974Z,4.40
2018-09-28T23:57:11.651Z,4.40
2018-09-28T23:59:40.290Z,4.30
